sensor_id;sensor_type;location;lat;lon;timestamp;temperature;humidity
7576;DHT22;3829;50.798;4.358;2022-09-09T00:04:32;14.60;99.90
7576;DHT22;3829;50.798;4.358;2022-09-09T00:09:51;14.60;99.90
7576;DHT22;3829;50.798;4.358;2022-09-09T00:12:45;14.60;99.90
7576;DHT22;3829;50.798;4.358;2022-09-09T00:15:21;14.60;99.90
7576;DHT22;3829;50.798;4.358;2022-09-09T00:25:59;14.60;99.90
7576;DHT22;3829;50.798;4.358;2022-09-09T00:28:28;14.60;99.90
7576;DHT22;3829;50.798;4.358;2022-09-09T00:31:04;14.60;99.90
7576;DHT22;3829;50.798;4.358;2022-09-09T00:33:34;14.70;99.90
7576;DHT22;3829;50.798;4.358;2022-09-09T00:36:01;14.70;99.90
7576;DHT22;3829;50.798;4.358;2022-09-09T00:38:36;14.70;99.90
7576;DHT22;3829;50.798;4.358;2022-09-09T00:52:40;14.90;99.90
7576;DHT22;3829;50.798;4.358;2022-09-09T00:57:38;15.00;99.90
7576;DHT22;3829;50.798;4.358;2022-09-09T01:00:30;15.00;99.90
7576;DHT22;3829;50.798;4.358;2022-09-09T01:05:54;15.10;99.90
7576;DHT22;3829;50.798;4.358;2022-09-09T01:11:25;15.10;99.90
7576;DHT22;3829;50.798;4.358;2022-09-09T01:14:20;15.00;99.90
7576;DHT22;3829;50.798;4.358;2022-09-09T01:16:52;15.00;99.90
7576;DHT22;3829;50.798;4.358;2022-09-09T01:27:48;15.00;99.90
7576;DHT22;3829;50.798;4.358;2022-09-09T01:30:17;15.00;99.90
7576;DHT22;3829;50.798;4.358;2022-09-09T01:32:44;14.90;99.90
7576;DHT22;3829;50.798;4.358;2022-09-09T01:35:26;14.90;99.90
7576;DHT22;3829;50.798;4.358;2022-09-09T01:37:53;15.00;99.90
7576;DHT22;3829;50.798;4.358;2022-09-09T01:40:18;14.90;99.90
7576;DHT22;3829;50.798;4.358;2022-09-09T01:42:44;14.80;99.90
7576;DHT22;3829;50.798;4.358;2022-09-09T01:45:09;14.90;99.90
7576;DHT22;3829;50.798;4.358;2022-09-09T01:47:35;14.90;99.90
7576;DHT22;3829;50.798;4.358;2022-09-09T01:50:02;14.90;99.90
7576;DHT22;3829;50.798;4.358;2022-09-09T01:52:29;14.90;99.90
7576;DHT22;3829;50.798;4.358;2022-09-09T01:54:55;14.90;99.90
7576;DHT22;3829;50.798;4.358;2022-09-09T01:57:25;15.00;99.90
7576;DHT22;3829;50.798;4.358;2022-09-09T02:00:02;14.90;99.90
7576;DHT22;3829;50.798;4.358;2022-09-09T02:08:03;15.00;99.90
7576;DHT22;3829;50.798;4.358;2022-09-09T02:10:35;14.90;99.90
7576;DHT22;3829;50.798;4.358;2022-09-09T02:13:12;15.00;99.90
7576;DHT22;3829;50.798;4.358;2022-09-09T02:18:51;15.00;99.90
7576;DHT22;3829;50.798;4.358;2022-09-09T02:21:18;15.00;99.90
7576;DHT22;3829;50.798;4.358;2022-09-09T02:23:47;14.90;99.90
7576;DHT22;3829;50.798;4.358;2022-09-09T02:26:17;15.00;99.90
7576;DHT22;3829;50.798;4.358;2022-09-09T02:28:49;14.90;99.90
7576;DHT22;3829;50.798;4.358;2022-09-09T02:31:17;15.00;99.90
7576;DHT22;3829;50.798;4.358;2022-09-09T02:33:49;15.00;99.90
7576;DHT22;3829;50.798;4.358;2022-09-09T02:36:16;14.90;99.90
7576;DHT22;3829;50.798;4.358;2022-09-09T02:38:46;14.90;99.90
7576;DHT22;3829;50.798;4.358;2022-09-09T02:41:19;15.00;99.90
7576;DHT22;3829;50.798;4.358;2022-09-09T02:43:47;14.90;99.90
7576;DHT22;3829;50.798;4.358;2022-09-09T02:48:51;14.90;99.90
7576;DHT22;3829;50.798;4.358;2022-09-09T02:51:35;15.00;99.90
7576;DHT22;3829;50.798;4.358;2022-09-09T02:56:52;14.90;99.90
7576;DHT22;3829;50.798;4.358;2022-09-09T02:59:21;14.90;99.90
7576;DHT22;3829;50.798;4.358;2022-09-09T03:01:46;14.90;99.90
7576;DHT22;3829;50.798;4.358;2022-09-09T03:04:13;14.90;99.90
7576;DHT22;3829;50.798;4.358;2022-09-09T03:06:38;15.00;99.90
7576;DHT22;3829;50.798;4.358;2022-09-09T03:09:04;15.00;99.90
7576;DHT22;3829;50.798;4.358;2022-09-09T03:11:30;14.90;99.90
7576;DHT22;3829;50.798;4.358;2022-09-09T03:13:56;14.90;99.90
7576;DHT22;3829;50.798;4.358;2022-09-09T03:16:22;14.90;99.90
7576;DHT22;3829;50.798;4.358;2022-09-09T03:18:48;14.80;99.90
7576;DHT22;3829;50.798;4.358;2022-09-09T03:21:14;14.90;99.90
7576;DHT22;3829;50.798;4.358;2022-09-09T03:23:40;14.80;99.90
7576;DHT22;3829;50.798;4.358;2022-09-09T03:26:06;14.90;99.90
7576;DHT22;3829;50.798;4.358;2022-09-09T03:28:32;14.80;99.90
7576;DHT22;3829;50.798;4.358;2022-09-09T03:30:59;14.80;99.90
7576;DHT22;3829;50.798;4.358;2022-09-09T03:33:25;14.80;99.90
7576;DHT22;3829;50.798;4.358;2022-09-09T03:35:51;14.90;99.90
7576;DHT22;3829;50.798;4.358;2022-09-09T03:38:16;14.80;99.90
7576;DHT22;3829;50.798;4.358;2022-09-09T03:40:53;14.80;99.90
7576;DHT22;3829;50.798;4.358;2022-09-09T03:43:23;14.80;99.90
7576;DHT22;3829;50.798;4.358;2022-09-09T03:45:49;14.80;99.90
7576;DHT22;3829;50.798;4.358;2022-09-09T03:48:19;14.80;99.90
7576;DHT22;3829;50.798;4.358;2022-09-09T03:50:49;14.80;99.90
7576;DHT22;3829;50.798;4.358;2022-09-09T03:53:16;14.80;99.90
7576;DHT22;3829;50.798;4.358;2022-09-09T03:55:50;14.90;99.90
7576;DHT22;3829;50.798;4.358;2022-09-09T03:58:20;14.90;99.90
7576;DHT22;3829;50.798;4.358;2022-09-09T04:00:56;14.90;99.90
7576;DHT22;3829;50.798;4.358;2022-09-09T04:03:22;14.90;99.90
7576;DHT22;3829;50.798;4.358;2022-09-09T04:05:52;15.00;99.90
7576;DHT22;3829;50.798;4.358;2022-09-09T04:08:19;15.00;99.90
7576;DHT22;3829;50.798;4.358;2022-09-09T04:10:48;15.10;99.90
7576;DHT22;3829;50.798;4.358;2022-09-09T04:13:15;15.10;99.90
7576;DHT22;3829;50.798;4.358;2022-09-09T04:15:44;15.10;99.90
7576;DHT22;3829;50.798;4.358;2022-09-09T04:18:10;14.90;99.90
7576;DHT22;3829;50.798;4.358;2022-09-09T04:20:37;14.90;99.90
7576;DHT22;3829;50.798;4.358;2022-09-09T04:23:03;15.00;99.90
7576;DHT22;3829;50.798;4.358;2022-09-09T04:25:30;14.90;99.90
7576;DHT22;3829;50.798;4.358;2022-09-09T04:27:57;14.90;99.90
7576;DHT22;3829;50.798;4.358;2022-09-09T04:30:24;14.80;99.90
7576;DHT22;3829;50.798;4.358;2022-09-09T04:32:50;14.90;99.90
7576;DHT22;3829;50.798;4.358;2022-09-09T04:35:16;14.90;99.90
7576;DHT22;3829;50.798;4.358;2022-09-09T04:37:42;14.80;99.90
7576;DHT22;3829;50.798;4.358;2022-09-09T04:40:08;14.80;99.90
7576;DHT22;3829;50.798;4.358;2022-09-09T04:42:35;14.80;99.90
7576;DHT22;3829;50.798;4.358;2022-09-09T04:45:01;14.80;99.90
7576;DHT22;3829;50.798;4.358;2022-09-09T04:47:27;14.90;99.90
7576;DHT22;3829;50.798;4.358;2022-09-09T04:49:52;14.80;99.90
7576;DHT22;3829;50.798;4.358;2022-09-09T04:52:20;14.90;99.90
7576;DHT22;3829;50.798;4.358;2022-09-09T04:54:45;14.80;99.90
7576;DHT22;3829;50.798;4.358;2022-09-09T04:57:11;14.90;99.90
7576;DHT22;3829;50.798;4.358;2022-09-09T04:59:37;14.80;99.90
7576;DHT22;3829;50.798;4.358;2022-09-09T05:02:03;14.90;99.90
7576;DHT22;3829;50.798;4.358;2022-09-09T05:04:29;14.90;99.90
7576;DHT22;3829;50.798;4.358;2022-09-09T05:06:55;14.90;99.90
7576;DHT22;3829;50.798;4.358;2022-09-09T05:09:21;15.00;99.90
7576;DHT22;3829;50.798;4.358;2022-09-09T05:11:46;15.00;99.90
7576;DHT22;3829;50.798;4.358;2022-09-09T05:14:12;15.10;99.90
7576;DHT22;3829;50.798;4.358;2022-09-09T05:16:38;15.10;99.90
7576;DHT22;3829;50.798;4.358;2022-09-09T05:19:03;15.20;99.90
7576;DHT22;3829;50.798;4.358;2022-09-09T05:21:29;15.20;99.90
7576;DHT22;3829;50.798;4.358;2022-09-09T05:23:56;15.30;99.90
7576;DHT22;3829;50.798;4.358;2022-09-09T05:26:22;15.40;99.90
7576;DHT22;3829;50.798;4.358;2022-09-09T05:28:48;15.40;99.90
7576;DHT22;3829;50.798;4.358;2022-09-09T05:31:15;15.40;99.90
7576;DHT22;3829;50.798;4.358;2022-09-09T05:33:43;15.40;99.90
7576;DHT22;3829;50.798;4.358;2022-09-09T05:36:29;15.50;99.90
7576;DHT22;3829;50.798;4.358;2022-09-09T05:38:54;15.50;99.90
7576;DHT22;3829;50.798;4.358;2022-09-09T05:41:20;15.40;99.90
7576;DHT22;3829;50.798;4.358;2022-09-09T05:43:46;15.40;99.90
7576;DHT22;3829;50.798;4.358;2022-09-09T05:46:19;15.40;99.90
7576;DHT22;3829;50.798;4.358;2022-09-09T05:48:46;15.40;99.90
7576;DHT22;3829;50.798;4.358;2022-09-09T05:51:14;15.40;99.90
7576;DHT22;3829;50.798;4.358;2022-09-09T05:53:44;15.40;99.90
7576;DHT22;3829;50.798;4.358;2022-09-09T05:56:15;15.40;99.90
7576;DHT22;3829;50.798;4.358;2022-09-09T05:58:41;15.40;99.90
7576;DHT22;3829;50.798;4.358;2022-09-09T06:01:11;15.50;99.90
7576;DHT22;3829;50.798;4.358;2022-09-09T06:03:40;15.60;99.90
7576;DHT22;3829;50.798;4.358;2022-09-09T06:06:08;15.70;99.90
7576;DHT22;3829;50.798;4.358;2022-09-09T06:08:36;15.80;99.90
7576;DHT22;3829;50.798;4.358;2022-09-09T06:13:30;15.80;99.90
7576;DHT22;3829;50.798;4.358;2022-09-09T06:15:56;15.90;99.90
7576;DHT22;3829;50.798;4.358;2022-09-09T06:18:24;16.00;99.90
7576;DHT22;3829;50.798;4.358;2022-09-09T06:20:58;16.00;99.90
7576;DHT22;3829;50.798;4.358;2022-09-09T06:23:26;15.90;99.90
7576;DHT22;3829;50.798;4.358;2022-09-09T06:26:00;15.90;99.90
7576;DHT22;3829;50.798;4.358;2022-09-09T06:28:25;15.90;99.90
7576;DHT22;3829;50.798;4.358;2022-09-09T06:31:00;16.00;99.90
7576;DHT22;3829;50.798;4.358;2022-09-09T06:33:26;16.20;99.90
7576;DHT22;3829;50.798;4.358;2022-09-09T06:35:53;16.30;99.90
7576;DHT22;3829;50.798;4.358;2022-09-09T06:38:19;16.40;99.90
7576;DHT22;3829;50.798;4.358;2022-09-09T06:40:55;16.40;99.90
7576;DHT22;3829;50.798;4.358;2022-09-09T06:43:22;16.40;99.90
7576;DHT22;3829;50.798;4.358;2022-09-09T06:46:08;16.30;99.90
7576;DHT22;3829;50.798;4.358;2022-09-09T06:48:35;16.30;99.90
7576;DHT22;3829;50.798;4.358;2022-09-09T06:53:27;16.20;99.90
7576;DHT22;3829;50.798;4.358;2022-09-09T06:55:53;16.30;99.90
7576;DHT22;3829;50.798;4.358;2022-09-09T06:58:20;16.50;99.90
7576;DHT22;3829;50.798;4.358;2022-09-09T07:00:47;16.60;99.90
7576;DHT22;3829;50.798;4.358;2022-09-09T07:03:13;16.80;99.90
7576;DHT22;3829;50.798;4.358;2022-09-09T07:05:39;16.80;99.90
7576;DHT22;3829;50.798;4.358;2022-09-09T07:08:04;16.90;99.90
7576;DHT22;3829;50.798;4.358;2022-09-09T07:10:31;17.10;99.90
7576;DHT22;3829;50.798;4.358;2022-09-09T07:12:56;17.00;99.90
7576;DHT22;3829;50.798;4.358;2022-09-09T07:15:22;16.90;99.90
7576;DHT22;3829;50.798;4.358;2022-09-09T07:17:48;17.00;99.90
7576;DHT22;3829;50.798;4.358;2022-09-09T07:20:14;17.00;99.90
7576;DHT22;3829;50.798;4.358;2022-09-09T07:22:41;17.00;99.90
7576;DHT22;3829;50.798;4.358;2022-09-09T07:25:07;16.90;99.90
7576;DHT22;3829;50.798;4.358;2022-09-09T07:27:33;16.90;99.90
7576;DHT22;3829;50.798;4.358;2022-09-09T07:29:58;16.90;99.90
7576;DHT22;3829;50.798;4.358;2022-09-09T07:32:25;16.90;99.90
7576;DHT22;3829;50.798;4.358;2022-09-09T07:34:52;16.80;99.90
7576;DHT22;3829;50.798;4.358;2022-09-09T07:37:18;16.70;99.90
7576;DHT22;3829;50.798;4.358;2022-09-09T07:39:44;16.50;99.90
7576;DHT22;3829;50.798;4.358;2022-09-09T07:42:10;16.30;99.90
7576;DHT22;3829;50.798;4.358;2022-09-09T07:44:38;16.00;99.90
7576;DHT22;3829;50.798;4.358;2022-09-09T07:47:05;15.80;99.90
7576;DHT22;3829;50.798;4.358;2022-09-09T07:49:31;15.60;99.90
7576;DHT22;3829;50.798;4.358;2022-09-09T07:51:58;15.70;99.90
7576;DHT22;3829;50.798;4.358;2022-09-09T07:54:24;15.80;99.90
7576;DHT22;3829;50.798;4.358;2022-09-09T07:56:50;15.70;99.90
7576;DHT22;3829;50.798;4.358;2022-09-09T07:59:17;15.70;99.90
7576;DHT22;3829;50.798;4.358;2022-09-09T08:01:46;15.90;99.90
7576;DHT22;3829;50.798;4.358;2022-09-09T08:04:23;16.00;99.90
7576;DHT22;3829;50.798;4.358;2022-09-09T08:06:51;16.20;99.90
7576;DHT22;3829;50.798;4.358;2022-09-09T08:09:18;16.20;99.90
7576;DHT22;3829;50.798;4.358;2022-09-09T08:11:44;16.40;99.90
7576;DHT22;3829;50.798;4.358;2022-09-09T08:14:11;16.80;99.90
7576;DHT22;3829;50.798;4.358;2022-09-09T08:16:39;17.20;99.90
7576;DHT22;3829;50.798;4.358;2022-09-09T08:19:06;17.40;99.90
7576;DHT22;3829;50.798;4.358;2022-09-09T08:21:33;17.40;99.90
7576;DHT22;3829;50.798;4.358;2022-09-09T08:24:00;17.40;99.90
7576;DHT22;3829;50.798;4.358;2022-09-09T08:26:29;17.60;99.90
7576;DHT22;3829;50.798;4.358;2022-09-09T08:28:56;17.90;99.90
7576;DHT22;3829;50.798;4.358;2022-09-09T08:31:24;17.80;99.90
7576;DHT22;3829;50.798;4.358;2022-09-09T08:33:50;17.60;99.90
7576;DHT22;3829;50.798;4.358;2022-09-09T08:36:22;17.20;99.90
7576;DHT22;3829;50.798;4.358;2022-09-09T08:38:49;17.20;99.90
7576;DHT22;3829;50.798;4.358;2022-09-09T08:50:28;16.60;99.90
7576;DHT22;3829;50.798;4.358;2022-09-09T08:53:01;16.60;99.90
7576;DHT22;3829;50.798;4.358;2022-09-09T08:55:53;16.70;99.90
7576;DHT22;3829;50.798;4.358;2022-09-09T08:58:34;16.90;99.90
7576;DHT22;3829;50.798;4.358;2022-09-09T09:11:38;16.60;99.90
7576;DHT22;3829;50.798;4.358;2022-09-09T09:14:25;16.60;99.90
7576;DHT22;3829;50.798;4.358;2022-09-09T09:17:16;16.50;99.90
7576;DHT22;3829;50.798;4.358;2022-09-09T09:19:43;16.40;99.90
7576;DHT22;3829;50.798;4.358;2022-09-09T09:22:24;16.20;99.90
7576;DHT22;3829;50.798;4.358;2022-09-09T09:24:56;16.20;99.90
7576;DHT22;3829;50.798;4.358;2022-09-09T09:30:18;16.30;99.90
7576;DHT22;3829;50.798;4.358;2022-09-09T09:33:06;16.20;99.90
7576;DHT22;3829;50.798;4.358;2022-09-09T09:35:34;16.20;99.90
7576;DHT22;3829;50.798;4.358;2022-09-09T09:37:59;16.20;99.90
7576;DHT22;3829;50.798;4.358;2022-09-09T09:40:26;16.20;99.90
7576;DHT22;3829;50.798;4.358;2022-09-09T09:42:53;16.10;99.90
7576;DHT22;3829;50.798;4.358;2022-09-09T09:45:32;16.10;99.90
7576;DHT22;3829;50.798;4.358;2022-09-09T09:48:03;16.30;99.90
7576;DHT22;3829;50.798;4.358;2022-09-09T09:50:30;16.30;99.90
7576;DHT22;3829;50.798;4.358;2022-09-09T09:53:02;16.30;99.90
7576;DHT22;3829;50.798;4.358;2022-09-09T09:55:30;16.30;99.90
7576;DHT22;3829;50.798;4.358;2022-09-09T09:58:05;16.20;99.90
7576;DHT22;3829;50.798;4.358;2022-09-09T10:00:31;16.20;99.90
7576;DHT22;3829;50.798;4.358;2022-09-09T10:03:00;16.40;99.90
7576;DHT22;3829;50.798;4.358;2022-09-09T10:05:29;16.50;99.90
7576;DHT22;3829;50.798;4.358;2022-09-09T10:08:12;16.70;99.90
7576;DHT22;3829;50.798;4.358;2022-09-09T10:49:27;18.00;99.90
7576;DHT22;3829;50.798;4.358;2022-09-09T10:59:53;18.30;99.90
7576;DHT22;3829;50.798;4.358;2022-09-09T11:02:33;18.40;99.90
7576;DHT22;3829;50.798;4.358;2022-09-09T11:07:44;18.20;99.90
7576;DHT22;3829;50.798;4.358;2022-09-09T11:10:28;18.50;99.90
7576;DHT22;3829;50.798;4.358;2022-09-09T11:13:02;18.50;99.90
7576;DHT22;3829;50.798;4.358;2022-09-09T11:15:42;18.60;99.90
7576;DHT22;3829;50.798;4.358;2022-09-09T11:18:15;18.40;99.90
7576;DHT22;3829;50.798;4.358;2022-09-09T11:20:45;18.70;99.90
7576;DHT22;3829;50.798;4.358;2022-09-09T11:23:16;18.60;99.90
7576;DHT22;3829;50.798;4.358;2022-09-09T11:25:48;18.80;99.90
7576;DHT22;3829;50.798;4.358;2022-09-09T11:34:03;18.70;99.90
7576;DHT22;3829;50.798;4.358;2022-09-09T11:44:41;18.60;99.90
7576;DHT22;3829;50.798;4.358;2022-09-09T11:47:27;18.60;99.90
7576;DHT22;3829;50.798;4.358;2022-09-09T11:52:43;18.90;99.90
7576;DHT22;3829;50.798;4.358;2022-09-09T11:55:29;18.60;99.90
7576;DHT22;3829;50.798;4.358;2022-09-09T12:00:34;18.90;99.90
7576;DHT22;3829;50.798;4.358;2022-09-09T12:03:00;19.00;99.90
7576;DHT22;3829;50.798;4.358;2022-09-09T12:05:42;19.00;99.90
7576;DHT22;3829;50.798;4.358;2022-09-09T12:08:11;18.80;99.90
7576;DHT22;3829;50.798;4.358;2022-09-09T12:10:56;18.60;99.90
7576;DHT22;3829;50.798;4.358;2022-09-09T12:13:25;18.70;99.90
7576;DHT22;3829;50.798;4.358;2022-09-09T12:15:53;18.90;99.90
7576;DHT22;3829;50.798;4.358;2022-09-09T12:18:32;18.70;99.90
7576;DHT22;3829;50.798;4.358;2022-09-09T12:23:53;18.60;99.90
7576;DHT22;3829;50.798;4.358;2022-09-09T12:27:40;18.70;99.90
7576;DHT22;3829;50.798;4.358;2022-09-09T12:29:48;18.90;99.90
7576;DHT22;3829;50.798;4.358;2022-09-09T12:32:25;19.20;99.90
7576;DHT22;3829;50.798;4.358;2022-09-09T12:34:55;19.10;99.90
7576;DHT22;3829;50.798;4.358;2022-09-09T12:39:59;19.80;99.90
7576;DHT22;3829;50.798;4.358;2022-09-09T12:42:26;19.70;99.90
7576;DHT22;3829;50.798;4.358;2022-09-09T12:44:57;20.00;99.90
7576;DHT22;3829;50.798;4.358;2022-09-09T12:47:36;20.10;99.90
7576;DHT22;3829;50.798;4.358;2022-09-09T12:50:04;20.20;99.90
7576;DHT22;3829;50.798;4.358;2022-09-09T12:52:35;20.50;99.90
7576;DHT22;3829;50.798;4.358;2022-09-09T12:55:04;20.60;99.90
7576;DHT22;3829;50.798;4.358;2022-09-09T12:57:37;20.30;99.90
7576;DHT22;3829;50.798;4.358;2022-09-09T13:00:14;20.50;99.90
7576;DHT22;3829;50.798;4.358;2022-09-09T13:02:48;20.40;99.90
7576;DHT22;3829;50.798;4.358;2022-09-09T13:05:18;20.40;99.90
7576;DHT22;3829;50.798;4.358;2022-09-09T13:07:44;20.40;99.90
7576;DHT22;3829;50.798;4.358;2022-09-09T13:10:15;20.70;99.90
7576;DHT22;3829;50.798;4.358;2022-09-09T13:12:42;20.40;99.90
7576;DHT22;3829;50.798;4.358;2022-09-09T13:15:28;20.70;99.90
7576;DHT22;3829;50.798;4.358;2022-09-09T13:17:57;20.60;99.90
7576;DHT22;3829;50.798;4.358;2022-09-09T13:20:24;20.30;99.90
7576;DHT22;3829;50.798;4.358;2022-09-09T13:22:50;20.20;99.90
7576;DHT22;3829;50.798;4.358;2022-09-09T13:30:30;21.20;99.90
7576;DHT22;3829;50.798;4.358;2022-09-09T13:35:47;21.00;99.90
7576;DHT22;3829;50.798;4.358;2022-09-09T13:38:15;21.20;99.90
7576;DHT22;3829;50.798;4.358;2022-09-09T13:40:52;21.30;99.90
7576;DHT22;3829;50.798;4.358;2022-09-09T13:43:22;21.60;99.90
7576;DHT22;3829;50.798;4.358;2022-09-09T13:45:59;21.60;99.90
7576;DHT22;3829;50.798;4.358;2022-09-09T13:48:25;21.60;99.90
7576;DHT22;3829;50.798;4.358;2022-09-09T13:51:01;22.30;99.90
7576;DHT22;3829;50.798;4.358;2022-09-09T13:53:27;22.40;99.90
7576;DHT22;3829;50.798;4.358;2022-09-09T13:55:53;21.90;99.90
7576;DHT22;3829;50.798;4.358;2022-09-09T13:58:19;21.70;99.90
7576;DHT22;3829;50.798;4.358;2022-09-09T14:00:45;21.40;99.90
7576;DHT22;3829;50.798;4.358;2022-09-09T14:03:11;21.60;99.90
7576;DHT22;3829;50.798;4.358;2022-09-09T14:05:37;21.60;99.90
7576;DHT22;3829;50.798;4.358;2022-09-09T14:08:04;21.20;99.90
7576;DHT22;3829;50.798;4.358;2022-09-09T14:10:30;21.20;99.90
7576;DHT22;3829;50.798;4.358;2022-09-09T14:12:55;21.00;99.90
7576;DHT22;3829;50.798;4.358;2022-09-09T14:15:21;21.20;99.90
7576;DHT22;3829;50.798;4.358;2022-09-09T14:17:47;21.00;99.90
7576;DHT22;3829;50.798;4.358;2022-09-09T14:20:14;20.80;99.90
7576;DHT22;3829;50.798;4.358;2022-09-09T14:22:41;20.70;99.90
7576;DHT22;3829;50.798;4.358;2022-09-09T14:25:07;20.70;99.90
7576;DHT22;3829;50.798;4.358;2022-09-09T14:27:33;20.50;99.90
7576;DHT22;3829;50.798;4.358;2022-09-09T14:29:59;20.50;99.90
7576;DHT22;3829;50.798;4.358;2022-09-09T14:32:26;20.70;99.90
7576;DHT22;3829;50.798;4.358;2022-09-09T14:34:52;20.70;99.90
7576;DHT22;3829;50.798;4.358;2022-09-09T14:37:19;20.90;99.90
7576;DHT22;3829;50.798;4.358;2022-09-09T14:39:45;20.90;99.90
7576;DHT22;3829;50.798;4.358;2022-09-09T14:42:13;20.70;99.90
7576;DHT22;3829;50.798;4.358;2022-09-09T14:44:39;20.50;99.90
7576;DHT22;3829;50.798;4.358;2022-09-09T14:47:05;20.70;99.90
7576;DHT22;3829;50.798;4.358;2022-09-09T14:49:32;20.50;99.90
7576;DHT22;3829;50.798;4.358;2022-09-09T14:51:58;21.40;99.90
7576;DHT22;3829;50.798;4.358;2022-09-09T14:54:23;21.80;99.90
7576;DHT22;3829;50.798;4.358;2022-09-09T14:56:49;22.10;99.90
7576;DHT22;3829;50.798;4.358;2022-09-09T14:59:14;21.80;99.90
7576;DHT22;3829;50.798;4.358;2022-09-09T15:01:40;21.70;99.90
7576;DHT22;3829;50.798;4.358;2022-09-09T15:04:06;21.40;99.90
7576;DHT22;3829;50.798;4.358;2022-09-09T15:06:34;21.10;99.90
7576;DHT22;3829;50.798;4.358;2022-09-09T15:09:02;21.10;99.90
7576;DHT22;3829;50.798;4.358;2022-09-09T15:11:29;21.10;99.90
7576;DHT22;3829;50.798;4.358;2022-09-09T15:13:58;21.30;99.90
7576;DHT22;3829;50.798;4.358;2022-09-09T15:16:26;21.80;99.90
7576;DHT22;3829;50.798;4.358;2022-09-09T15:18:57;22.30;99.90
7576;DHT22;3829;50.798;4.358;2022-09-09T15:21:25;22.60;99.90
7576;DHT22;3829;50.798;4.358;2022-09-09T15:23:52;22.50;99.90
7576;DHT22;3829;50.798;4.358;2022-09-09T15:26:18;22.40;99.90
7576;DHT22;3829;50.798;4.358;2022-09-09T15:28:45;21.70;99.90
7576;DHT22;3829;50.798;4.358;2022-09-09T15:31:23;21.30;99.90
7576;DHT22;3829;50.798;4.358;2022-09-09T15:33:50;21.10;99.90
7576;DHT22;3829;50.798;4.358;2022-09-09T15:36:19;20.90;99.90
7576;DHT22;3829;50.798;4.358;2022-09-09T15:38:45;20.60;99.90
7576;DHT22;3829;50.798;4.358;2022-09-09T15:41:11;20.40;99.90
7576;DHT22;3829;50.798;4.358;2022-09-09T15:43:38;20.30;99.90
7576;DHT22;3829;50.798;4.358;2022-09-09T15:46:37;20.40;99.90
7576;DHT22;3829;50.798;4.358;2022-09-09T15:49:17;20.70;99.90
7576;DHT22;3829;50.798;4.358;2022-09-09T15:51:57;21.30;99.90
7576;DHT22;3829;50.798;4.358;2022-09-09T15:54:24;21.80;99.90
7576;DHT22;3829;50.798;4.358;2022-09-09T15:56:55;22.30;99.90
7576;DHT22;3829;50.798;4.358;2022-09-09T15:59:22;22.30;99.90
7576;DHT22;3829;50.798;4.358;2022-09-09T16:01:48;23.30;99.90
7576;DHT22;3829;50.798;4.358;2022-09-09T16:04:17;23.50;99.90
7576;DHT22;3829;50.798;4.358;2022-09-09T16:06:49;22.70;99.90
7576;DHT22;3829;50.798;4.358;2022-09-09T16:09:16;22.00;99.90
7576;DHT22;3829;50.798;4.358;2022-09-09T16:11:41;21.50;99.90
7576;DHT22;3829;50.798;4.358;2022-09-09T16:14:07;21.30;99.90
7576;DHT22;3829;50.798;4.358;2022-09-09T16:16:33;21.10;99.90
7576;DHT22;3829;50.798;4.358;2022-09-09T16:19:03;20.80;99.90
7576;DHT22;3829;50.798;4.358;2022-09-09T16:21:32;20.70;99.90
7576;DHT22;3829;50.798;4.358;2022-09-09T16:24:01;20.20;99.90
7576;DHT22;3829;50.798;4.358;2022-09-09T16:26:31;19.40;99.90
7576;DHT22;3829;50.798;4.358;2022-09-09T16:28:58;18.30;99.90
7576;DHT22;3829;50.798;4.358;2022-09-09T16:31:25;17.60;99.90
7576;DHT22;3829;50.798;4.358;2022-09-09T16:33:52;17.10;99.90
7576;DHT22;3829;50.798;4.358;2022-09-09T16:36:20;17.10;99.90
7576;DHT22;3829;50.798;4.358;2022-09-09T16:38:46;17.00;99.90
7576;DHT22;3829;50.798;4.358;2022-09-09T16:41:13;17.00;99.90
7576;DHT22;3829;50.798;4.358;2022-09-09T16:43:40;17.10;99.90
7576;DHT22;3829;50.798;4.358;2022-09-09T16:46:17;17.10;99.90
7576;DHT22;3829;50.798;4.358;2022-09-09T16:48:44;17.10;99.90
7576;DHT22;3829;50.798;4.358;2022-09-09T16:51:19;17.30;99.90
7576;DHT22;3829;50.798;4.358;2022-09-09T16:53:45;17.50;99.90
7576;DHT22;3829;50.798;4.358;2022-09-09T16:56:13;17.50;99.90
7576;DHT22;3829;50.798;4.358;2022-09-09T16:58:39;17.30;99.90
7576;DHT22;3829;50.798;4.358;2022-09-09T17:01:05;17.20;99.90
7576;DHT22;3829;50.798;4.358;2022-09-09T17:03:31;17.00;99.90
7576;DHT22;3829;50.798;4.358;2022-09-09T17:05:59;17.00;99.90
7576;DHT22;3829;50.798;4.358;2022-09-09T17:08:31;17.00;99.90
7576;DHT22;3829;50.798;4.358;2022-09-09T17:10:58;17.10;99.90
7576;DHT22;3829;50.798;4.358;2022-09-09T17:13:24;17.00;99.90
7576;DHT22;3829;50.798;4.358;2022-09-09T17:15:50;17.10;99.90
7576;DHT22;3829;50.798;4.358;2022-09-09T17:18:16;17.20;99.90
7576;DHT22;3829;50.798;4.358;2022-09-09T17:20:43;17.10;99.90
7576;DHT22;3829;50.798;4.358;2022-09-09T17:23:10;17.00;99.90
7576;DHT22;3829;50.798;4.358;2022-09-09T17:25:36;16.80;99.90
7576;DHT22;3829;50.798;4.358;2022-09-09T17:28:03;16.80;99.90
7576;DHT22;3829;50.798;4.358;2022-09-09T17:30:33;16.70;99.90
7576;DHT22;3829;50.798;4.358;2022-09-09T17:32:59;16.60;99.90
7576;DHT22;3829;50.798;4.358;2022-09-09T17:35:25;16.50;99.90
7576;DHT22;3829;50.798;4.358;2022-09-09T17:37:53;16.50;99.90
7576;DHT22;3829;50.798;4.358;2022-09-09T17:40:18;16.50;99.90
7576;DHT22;3829;50.798;4.358;2022-09-09T17:42:45;16.60;99.90
7576;DHT22;3829;50.798;4.358;2022-09-09T17:45:11;16.80;99.90
7576;DHT22;3829;50.798;4.358;2022-09-09T17:47:36;16.70;99.90
7576;DHT22;3829;50.798;4.358;2022-09-09T17:50:03;16.60;99.90
7576;DHT22;3829;50.798;4.358;2022-09-09T17:52:28;16.60;99.90
7576;DHT22;3829;50.798;4.358;2022-09-09T17:54:55;16.60;99.90
7576;DHT22;3829;50.798;4.358;2022-09-09T17:57:22;16.50;99.90
7576;DHT22;3829;50.798;4.358;2022-09-09T17:59:47;16.50;99.90
7576;DHT22;3829;50.798;4.358;2022-09-09T18:02:13;16.50;99.90
7576;DHT22;3829;50.798;4.358;2022-09-09T18:04:38;16.40;99.90
7576;DHT22;3829;50.798;4.358;2022-09-09T18:07:04;16.50;99.90
7576;DHT22;3829;50.798;4.358;2022-09-09T18:09:30;16.40;99.90
7576;DHT22;3829;50.798;4.358;2022-09-09T18:11:57;16.40;99.90
7576;DHT22;3829;50.798;4.358;2022-09-09T18:14:31;16.40;99.90
7576;DHT22;3829;50.798;4.358;2022-09-09T18:16:58;16.20;99.90
7576;DHT22;3829;50.798;4.358;2022-09-09T18:19:26;16.20;99.90
7576;DHT22;3829;50.798;4.358;2022-09-09T18:21:53;16.10;99.90
7576;DHT22;3829;50.798;4.358;2022-09-09T18:24:20;16.10;99.90
7576;DHT22;3829;50.798;4.358;2022-09-09T18:26:47;16.10;99.90
7576;DHT22;3829;50.798;4.358;2022-09-09T18:29:17;16.10;99.90
7576;DHT22;3829;50.798;4.358;2022-09-09T18:31:44;16.10;99.90
7576;DHT22;3829;50.798;4.358;2022-09-09T18:34:12;16.10;99.90
7576;DHT22;3829;50.798;4.358;2022-09-09T18:36:56;16.00;99.90
7576;DHT22;3829;50.798;4.358;2022-09-09T18:39:25;16.00;99.90
7576;DHT22;3829;50.798;4.358;2022-09-09T18:41:57;15.90;99.90
7576;DHT22;3829;50.798;4.358;2022-09-09T18:44:30;15.80;99.90
7576;DHT22;3829;50.798;4.358;2022-09-09T18:46:56;15.90;99.90
7576;DHT22;3829;50.798;4.358;2022-09-09T18:49:23;15.90;99.90
7576;DHT22;3829;50.798;4.358;2022-09-09T18:51:49;15.80;99.90
7576;DHT22;3829;50.798;4.358;2022-09-09T18:54:21;15.80;99.90
7576;DHT22;3829;50.798;4.358;2022-09-09T18:56:47;15.90;99.90
7576;DHT22;3829;50.798;4.358;2022-09-09T18:59:18;15.90;99.90
7576;DHT22;3829;50.798;4.358;2022-09-09T19:01:45;15.90;99.90